Time;durP1;ratioP1;P1;durP2;ratioP2;P2;SDS_P1;SDS_P2;PMS_P1;PMS_P2;Temp;Humidity;BMP_temperature;BMP_pressure;BME280_temperature;BME280_humidity;BME280_pressure;Samples;Min_cycle;Max_cycle;Signal;HPM_P1;HPM_P2
2022/07/20 00:00:39;;;;;;;7.60;2.43;;;;;;;21.04;100.00;101816.28;2080128;28;20290;-66
2022/07/20 00:01:40;;;;;;;4.53;2.47;;;;;;;21.01;100.00;101814.41;2080499;28;20185;-67
2022/07/20 00:02:40;;;;;;;4.63;2.60;;;;;;;20.97;100.00;101814.56;2080398;28;20192;-67
2022/07/20 00:03:41;;;;;;;3.60;2.33;;;;;;;20.93;100.00;101813.97;2079670;28;20195;-67
2022/07/20 00:04:42;;;;;;;6.57;2.30;;;;;;;20.85;100.00;101800.66;2079722;28;20191;-67
2022/07/20 00:05:43;;;;;;;7.60;2.20;;;;;;;20.90;100.00;101808.50;2079624;28;20443;-67
2022/07/20 00:06:43;;;;;;;7.13;2.47;;;;;;;20.89;100.00;101810.56;2079963;28;20193;-67
2022/07/20 00:07:44;;;;;;;9.30;2.60;;;;;;;20.89;100.00;101812.56;2079470;28;20436;-67
2022/07/20 00:11:23;;;;;;;3.80;2.37;;;;;;;20.78;100.00;101803.81;2080123;28;20448;-67
2022/07/20 00:12:23;;;;;;;4.63;1.90;;;;;;;20.79;100.00;101809.00;2076906;28;20949;-67
2022/07/20 00:13:24;;;;;;;5.73;2.27;;;;;;;20.74;100.00;101815.28;2073489;28;20197;-67
2022/07/20 00:14:24;;;;;;;8.00;2.47;;;;;;;20.28;100.00;101748.25;2079639;28;20221;-67
2022/07/20 00:15:25;;;;;;;6.60;2.20;;;;;;;20.64;100.00;101812.94;2080788;28;20194;-67
2022/07/20 00:16:27;;;;;;;5.53;2.50;;;;;;;20.59;100.00;101810.75;2074108;28;20305;-67
2022/07/20 00:17:28;;;;;;;4.90;2.17;;;;;;;20.55;100.00;101810.94;2079417;28;20205;-67
2022/07/20 00:18:28;;;;;;;5.33;2.17;;;;;;;20.55;100.00;101808.09;2081581;28;20538;-67
2022/07/20 00:19:29;;;;;;;5.50;2.30;;;;;;;19.97;100.00;101722.31;2081384;28;20455;-67
2022/07/20 00:20:29;;;;;;;5.30;2.40;;;;;;;20.48;100.00;101805.63;2081369;28;20202;-67
2022/07/20 00:21:31;;;;;;;4.97;2.37;;;;;;;20.44;100.00;101807.81;2081478;28;20219;-67
2022/07/20 00:22:31;;;;;;;9.13;2.20;;;;;;;20.42;100.00;101803.91;2081527;28;20197;-67
2022/07/20 00:23:32;;;;;;;5.10;2.13;;;;;;;20.38;100.00;101804.09;2081344;28;20432;-67
2022/07/20 00:24:32;;;;;;;3.90;1.97;;;;;;;20.37;100.00;101804.56;2073600;28;20191;-67
2022/07/20 00:25:33;;;;;;;5.00;2.20;;;;;;;19.58;100.00;101672.63;2079695;28;20187;-67
2022/07/20 00:26:33;;;;;;;5.00;2.20;;;;;;;20.29;100.00;101795.66;2075546;28;20202;-67
2022/07/20 00:27:34;;;;;;;7.83;2.47;;;;;;;20.36;100.00;101800.19;2077535;28;20228;-67
2022/07/20 00:28:35;;;;;;;3.33;2.00;;;;;;;20.38;100.00;101806.91;2081371;28;20248;-67
2022/07/20 00:29:35;;;;;;;4.10;1.90;;;;;;;20.37;100.00;101807.38;2080579;28;20190;-67
2022/07/20 00:30:35;;;;;;;5.77;2.00;;;;;;;20.35;100.00;101813.47;2072547;28;20282;-67
2022/07/20 00:31:36;;;;;;;6.13;2.20;;;;;;;20.34;100.00;101809.09;2072801;28;20219;-67
2022/07/20 00:32:38;;;;;;;8.03;2.47;;;;;;;20.33;100.00;101807.53;2073836;28;20187;-67
2022/07/20 00:33:39;;;;;;;4.10;2.23;;;;;;;20.30;100.00;101813.28;2072869;28;20226;-67
2022/07/20 00:34:39;;;;;;;5.83;2.00;;;;;;;19.54;100.00;101712.16;2079400;28;20939;-67
2022/07/20 00:35:40;;;;;;;4.00;2.00;;;;;;;20.11;100.00;101801.28;2080747;28;20190;-67
2022/07/20 00:36:40;;;;;;;4.07;2.10;;;;;;;20.00;100.00;101794.53;2081447;28;20281;-67
2022/07/20 00:37:41;;;;;;;4.43;1.97;;;;;;;19.92;100.00;101799.69;2080877;28;20278;-68
2022/07/20 00:38:42;;;;;;;4.97;2.00;;;;;;;19.70;100.00;101778.59;2081288;28;20186;-67
2022/07/20 00:39:42;;;;;;;6.17;2.30;;;;;;;19.78;100.00;101807.97;2081403;28;20428;-68
2022/07/20 00:40:43;;;;;;;4.20;2.33;;;;;;;19.75;100.00;101823.72;2081877;28;20691;-67
2022/07/20 00:41:43;;;;;;;4.40;2.20;;;;;;;19.70;100.00;101803.91;2073807;28;20277;-67
2022/07/20 00:42:44;;;;;;;4.27;1.93;;;;;;;19.58;100.00;101805.59;2079806;28;20188;-67
2022/07/20 00:44:05;;;;;;;3.70;2.27;;;;;;;19.44;100.00;101809.00;2080243;28;20190;-68
2022/07/20 00:45:08;;;;;;;3.47;2.10;;;;;;;19.39;100.00;101808.84;2080494;28;20188;-68
2022/07/20 00:46:08;;;;;;;8.33;2.30;;;;;;;18.16;100.00;101648.06;2081371;28;20443;-68
2022/07/20 00:47:09;;;;;;;2.93;2.13;;;;;;;19.09;100.00;101806.84;2080683;28;20463;-68
2022/07/20 00:48:09;;;;;;;4.73;2.60;;;;;;;19.09;100.00;101813.22;2081381;28;20202;-68
2022/07/20 00:49:12;;;;;;;4.83;2.20;;;;;;;19.06;100.00;101816.19;2081097;28;20677;-68
2022/07/20 00:50:12;;;;;;;8.43;2.60;;;;;;;18.61;100.00;101729.69;2081120;28;20193;-68
2022/07/20 00:51:13;;;;;;;4.47;2.40;;;;;;;19.08;100.00;101810.91;2081465;28;20747;-67
2022/07/20 00:52:14;;;;;;;4.13;2.03;;;;;;;19.13;100.00;101807.47;2081840;28;20177;-67
2022/07/20 00:53:15;;;;;;;4.10;2.17;;;;;;;19.16;100.00;101806.53;2073879;28;20232;-67
2022/07/20 00:54:16;;;;;;;4.47;1.90;;;;;;;19.17;100.00;101805.28;2079890;28;20508;-67
2022/07/20 00:55:16;;;;;;;2.83;2.10;;;;;;;19.19;100.00;101808.44;2080547;28;20231;-68
2022/07/20 00:56:19;;;;;;;3.17;1.93;;;;;;;18.49;100.00;101705.31;2076291;28;20217;-68
2022/07/20 00:57:20;;;;;;;11.13;3.30;;;;;;;19.20;100.00;101810.78;2076647;28;20296;-68
2022/07/20 00:58:21;;;;;;;8.23;3.10;;;;;;;19.07;100.00;101784.81;2081328;28;20908;-68
2022/07/20 00:59:21;;;;;;;7.20;3.00;;;;;;;19.21;100.00;101805.94;2080922;28;20420;-67
2022/07/20 01:00:22;;;;;;;8.30;2.90;;;;;;;19.08;100.00;101792.00;2081361;28;20177;-68
2022/07/20 01:01:22;;;;;;;7.20;2.53;;;;;;;18.64;100.00;101723.16;2081888;28;20193;-68
2022/07/20 01:02:23;;;;;;;4.70;2.33;;;;;;;19.11;100.00;101807.13;2080993;28;20273;-67
2022/07/20 01:03:23;;;;;;;6.57;2.70;;;;;;;19.08;100.00;101808.84;2081156;28;20705;-68
2022/07/20 01:04:24;;;;;;;3.90;2.50;;;;;;;18.83;100.00;101809.03;2075274;28;20562;-67
2022/07/20 01:05:25;;;;;;;4.83;2.03;;;;;;;18.78;100.00;101794.84;2076262;28;20195;-68
2022/07/20 01:06:26;;;;;;;4.33;2.10;;;;;;;18.85;100.00;101809.38;2081207;28;20188;-68
2022/07/20 01:07:26;;;;;;;2.70;2.00;;;;;;;18.85;100.00;101815.00;2079995;28;20176;-67
2022/07/20 01:08:28;;;;;;;5.43;2.27;;;;;;;18.80;100.00;101812.00;2080423;28;20426;-67
2022/07/20 01:09:28;;;;;;;5.33;2.47;;;;;;;18.76;100.00;101808.53;2081144;28;20206;-67
2022/07/20 01:10:29;;;;;;;7.10;2.37;;;;;;;18.73;100.00;101807.44;2073711;28;20434;-67
2022/07/20 01:11:30;;;;;;;3.63;2.10;;;;;;;18.72;100.00;101810.72;2073068;28;20200;-68
2022/07/20 01:12:30;;;;;;;2.83;2.03;;;;;;;18.73;100.00;101806.66;2079043;28;20315;-68
2022/07/20 01:13:31;;;;;;;5.90;2.50;;;;;;;18.59;100.00;101781.94;2080959;28;20218;-67
2022/07/20 01:14:31;;;;;;;7.53;2.60;;;;;;;18.78;100.00;101808.88;2080580;28;20563;-67
2022/07/20 01:15:32;;;;;;;5.60;2.60;;;;;;;18.76;100.00;101803.72;2080419;28;20177;-68
2022/07/20 01:16:34;;;;;;;8.40;2.70;;;;;;;18.46;100.00;101773.59;2081221;28;20686;-67
2022/07/20 01:17:34;;;;;;;11.33;3.10;;;;;;;18.82;100.00;101803.88;2080462;28;20575;-67
2022/07/20 01:18:35;;;;;;;10.93;2.97;;;;;;;18.81;100.00;101807.94;2081805;28;20466;-67
2022/07/20 01:19:35;;;;;;;15.93;3.53;;;;;;;18.86;100.00;101801.72;2080986;28;20192;-67
2022/07/20 01:20:36;;;;;;;20.00;4.70;;;;;;;18.88;100.00;101802.81;2081103;28;20284;-67
2022/07/20 01:21:43;;;;;;;15.37;4.17;;;;;;;18.11;100.00;101678.75;2080555;28;20187;-68
2022/07/20 01:22:47;;;;;;;15.77;3.87;;;;;;;18.08;100.00;101674.81;2081077;28;20190;-67
2022/07/20 01:23:47;;;;;;;13.47;3.70;;;;;;;18.87;100.00;101790.03;2080519;28;20454;-67
2022/07/20 01:24:48;;;;;;;16.63;3.47;;;;;;;18.80;100.00;101779.09;2080391;28;21018;-67
2022/07/20 01:25:49;;;;;;;7.10;2.60;;;;;;;18.91;100.00;101798.31;2077536;28;20180;-67
2022/07/20 01:26:49;;;;;;;7.50;2.43;;;;;;;18.93;100.00;101802.22;2073297;28;20185;-68
2022/07/20 01:27:50;;;;;;;5.53;2.50;;;;;;;18.86;100.00;101788.47;2081442;28;20162;-68
2022/07/20 01:28:50;;;;;;;5.80;2.43;;;;;;;18.95;100.00;101799.75;2073115;28;20190;-68
2022/07/20 01:29:51;;;;;;;4.97;2.13;;;;;;;18.83;100.00;101778.16;2079684;28;20249;-68
2022/07/20 01:30:51;;;;;;;5.70;2.50;;;;;;;18.95;100.00;101799.75;2075540;28;20194;-68
2022/07/20 01:31:52;;;;;;;7.43;2.73;;;;;;;18.92;100.00;101789.44;2077454;28;20646;-67
2022/07/20 01:32:52;;;;;;;5.27;2.40;;;;;;;18.98;100.00;101801.63;2080578;28;20583;-67
2022/07/20 01:33:52;;;;;;;10.80;2.70;;;;;;;18.92;100.00;101785.81;2080373;28;20255;-68
2022/07/20 01:34:53;;;;;;;11.53;2.90;;;;;;;18.99;100.00;101794.00;2079891;28;20261;-68
2022/07/20 01:35:53;;;;;;;9.00;2.80;;;;;;;18.99;100.00;101805.22;2080903;28;20644;-67
2022/07/20 01:36:54;;;;;;;8.70;2.80;;;;;;;18.98;100.00;101800.84;2080871;28;20548;-67
2022/07/20 01:37:54;;;;;;;5.73;2.20;;;;;;;18.99;100.00;101794.75;2080564;28;20192;-67
2022/07/20 01:38:55;;;;;;;3.93;2.33;;;;;;;18.98;100.00;101795.25;2080902;28;20192;-67
2022/07/20 01:39:56;;;;;;;6.37;2.40;;;;;;;19.00;100.00;101801.16;2080841;28;20223;-68
2022/07/20 01:40:56;;;;;;;6.03;2.30;;;;;;;18.98;100.00;101796.00;2080872;28;20203;-67
2022/07/20 01:41:56;;;;;;;4.97;1.90;;;;;;;18.97;100.00;101794.44;2080805;28;20740;-67
2022/07/20 01:42:57;;;;;;;3.43;2.20;;;;;;;18.95;100.00;101796.16;2080920;28;20172;-67
2022/07/20 01:43:57;;;;;;;4.10;2.37;;;;;;;18.90;100.00;101783.50;2080377;28;20202;-67
2022/07/20 01:44:58;;;;;;;4.97;2.20;;;;;;;18.95;100.00;101802.56;2072380;28;20261;-67
2022/07/20 01:45:59;;;;;;;6.53;2.80;;;;;;;18.91;100.00;101807.53;2077555;28;20229;-67
2022/07/20 01:46:59;;;;;;;4.23;2.27;;;;;;;18.87;100.00;101803.28;2080477;28;20253;-68
2022/07/20 01:48:00;;;;;;;4.53;2.30;;;;;;;18.71;100.00;101795.88;2081611;28;20555;-67
2022/07/20 01:49:00;;;;;;;6.33;2.23;;;;;;;18.49;100.00;101783.13;2080852;28;20298;-67
2022/07/20 01:50:01;;;;;;;3.77;2.03;;;;;;;18.60;100.00;101803.94;2080640;28;20201;-68
2022/07/20 01:51:01;;;;;;;3.67;2.33;;;;;;;18.64;100.00;101801.00;2080901;28;20269;-68
2022/07/20 01:52:02;;;;;;;4.83;2.40;;;;;;;18.64;100.00;101798.19;2081068;28;20202;-67
2022/07/20 01:53:03;;;;;;;4.87;2.27;;;;;;;18.66;100.00;101799.28;2080728;28;20207;-67
2022/07/20 01:54:03;;;;;;;6.73;2.30;;;;;;;18.01;100.00;101707.97;2078207;28;20183;-67
2022/07/20 01:55:04;;;;;;;4.93;2.20;;;;;;;18.70;100.00;101807.56;2072427;28;20658;-68
2022/07/20 01:56:05;;;;;;;5.77;2.30;;;;;;;18.71;100.00;101801.50;2081537;28;20690;-68
2022/07/20 01:57:05;;;;;;;4.50;2.10;;;;;;;18.73;100.00;101798.25;2080297;28;20289;-68
2022/07/20 01:58:06;;;;;;;5.37;2.10;;;;;;;18.66;100.00;101795.69;2081003;28;20188;-68
2022/07/20 01:59:07;;;;;;;4.60;2.10;;;;;;;18.65;100.00;101823.00;2080735;28;20205;-67
2022/07/20 02:00:09;;;;;;;4.23;2.37;;;;;;;18.60;100.00;101808.75;2080689;28;20195;-67
2022/07/20 02:01:10;;;;;;;4.60;2.27;;;;;;;18.60;100.00;101805.97;2080678;28;20577;-67
2022/07/20 02:02:10;;;;;;;6.50;2.63;;;;;;;18.54;100.00;101796.56;2079934;28;20486;-67
2022/07/20 02:03:11;;;;;;;8.47;2.63;;;;;;;18.59;100.00;101810.00;2080029;28;20186;-67
2022/07/20 02:04:11;;;;;;;5.17;2.37;;;;;;;18.59;100.00;101805.19;2071951;28;20173;-67
2022/07/20 02:05:12;;;;;;;3.83;2.20;;;;;;;18.60;100.00;101809.56;2080493;28;20187;-67
2022/07/20 02:06:12;;;;;;;3.67;2.30;;;;;;;17.86;100.00;101693.66;2081018;28;20311;-67
2022/07/20 02:07:13;;;;;;;7.10;2.47;;;;;;;18.61;100.00;101811.13;2080257;28;20238;-67
2022/07/20 02:08:13;;;;;;;5.77;2.50;;;;;;;18.54;100.00;101800.16;2080847;28;20197;-67
2022/07/20 02:09:14;;;;;;;4.17;2.40;;;;;;;18.66;100.00;101807.72;2080792;28;20246;-67
2022/07/20 02:10:15;;;;;;;8.10;2.90;;;;;;;18.07;100.00;101723.72;2080548;28;20689;-67
2022/07/20 02:11:16;;;;;;;8.17;2.80;;;;;;;18.61;100.00;101813.13;2080516;28;20173;-67
2022/07/20 02:12:16;;;;;;;9.27;2.73;;;;;;;18.65;100.00;101811.78;2080651;28;20426;-67
2022/07/20 02:13:17;;;;;;;5.23;2.60;;;;;;;18.69;100.00;101812.44;2081362;28;20188;-67
2022/07/20 02:14:17;;;;;;;7.53;2.70;;;;;;;18.73;100.00;101810.25;2080080;28;20190;-67
2022/07/20 02:16:37;;;;;;;16.37;3.90;;;;;;;18.80;100.00;101807.19;2080826;28;20242;-67
2022/07/20 02:17:37;;;;;;;12.40;3.60;;;;;;;18.79;100.00;101818.88;2080247;28;20437;-67
2022/07/20 02:18:38;;;;;;;11.73;3.60;;;;;;;18.83;100.00;101814.66;2080788;28;20631;-67
2022/07/20 02:19:38;;;;;;;8.80;3.27;;;;;;;18.82;100.00;101815.91;2080588;28;20204;-67
2022/07/20 02:20:40;;;;;;;7.57;3.20;;;;;;;18.84;100.00;101818.28;2080486;28;20658;-67
2022/07/20 02:21:41;;;;;;;14.80;3.93;;;;;;;18.86;100.00;101819.38;2080723;28;20168;-67
2022/07/20 02:22:41;;;;;;;10.67;3.67;;;;;;;18.89;100.00;101815.63;2080486;28;20411;-67
2022/07/20 02:23:43;;;;;;;8.83;3.30;;;;;;;18.70;100.00;101793.53;2079913;28;20173;-67
2022/07/20 02:24:43;;;;;;;6.73;3.50;;;;;;;18.82;100.00;101818.72;2080877;28;20176;-67
2022/07/20 02:25:44;;;;;;;26.57;5.83;;;;;;;18.79;100.00;101824.47;2079947;28;20496;-68
2022/07/20 02:26:44;;;;;;;22.90;5.60;;;;;;;18.66;100.00;101818.94;2079765;28;20265;-67
2022/07/20 02:27:45;;;;;;;22.37;4.50;;;;;;;18.72;100.00;101825.53;2080159;28;20227;-67
2022/07/20 02:28:46;;;;;;;20.20;4.40;;;;;;;18.71;100.00;101835.19;2080418;28;20202;-67
2022/07/20 02:29:46;;;;;;;14.07;4.60;;;;;;;18.73;100.00;101823.50;2080559;28;20196;-67
2022/07/20 02:30:47;;;;;;;16.73;4.40;;;;;;;18.66;100.00;101812.53;2080324;28;20173;-67
2022/07/20 02:31:47;;;;;;;18.47;4.30;;;;;;;18.68;100.00;101824.88;2080715;28;20284;-67
2022/07/20 02:32:47;;;;;;;15.83;4.40;;;;;;;17.83;100.00;101689.75;2081191;28;20257;-67
2022/07/20 02:33:49;;;;;;;16.80;3.93;;;;;;;18.61;100.00;101821.56;2079947;28;20367;-67
2022/07/20 02:34:49;;;;;;;15.90;4.87;;;;;;;18.59;100.00;101824.06;2080150;28;20459;-67
2022/07/20 02:35:50;;;;;;;18.60;4.53;;;;;;;18.61;100.00;101822.34;2080204;28;20489;-67
2022/07/20 02:36:50;;;;;;;20.87;4.67;;;;;;;18.66;100.00;101820.97;2079945;28;20205;-67
2022/07/20 02:37:51;;;;;;;12.40;3.50;;;;;;;18.68;100.00;101821.31;2080187;28;20210;-67
2022/07/20 02:38:51;;;;;;;15.73;4.60;;;;;;;18.69;100.00;101820.06;2080388;28;20560;-67
2022/07/20 02:39:52;;;;;;;12.27;3.67;;;;;;;18.34;100.00;101768.84;2080339;28;20537;-67
2022/07/20 02:40:52;;;;;;;11.13;3.40;;;;;;;18.69;100.00;101820.84;2080336;28;20210;-67
2022/07/20 02:41:53;;;;;;;12.73;3.30;;;;;;;18.50;100.00;101787.50;2079905;28;20218;-67
2022/07/20 02:42:53;;;;;;;8.23;2.80;;;;;;;18.77;100.00;101821.34;2079076;28;20193;-67
2022/07/20 02:43:54;;;;;;;11.27;3.67;;;;;;;18.71;100.00;101820.38;2074470;28;20191;-67
2022/07/20 02:44:54;;;;;;;12.03;3.63;;;;;;;18.69;100.00;101823.66;2075895;28;20893;-67
2022/07/20 02:45:55;;;;;;;7.00;3.10;;;;;;;18.71;100.00;101828.78;2080565;28;20198;-67
2022/07/20 02:46:55;;;;;;;7.93;3.00;;;;;;;18.58;100.00;101811.25;2079606;28;20181;-67
2022/07/20 02:48:02;;;;;;;9.07;3.17;;;;;;;18.75;100.00;101833.03;2080421;28;20223;-67
2022/07/20 02:49:03;;;;;;;6.57;3.03;;;;;;;18.69;100.00;101820.84;2080554;28;20306;-67
2022/07/20 02:50:03;;;;;;;6.67;3.00;;;;;;;18.71;100.00;101837.22;2080957;28;20425;-67
2022/07/20 02:51:04;;;;;;;5.30;2.77;;;;;;;18.71;100.00;101835.19;2072825;28;20235;-67
2022/07/20 02:52:05;;;;;;;7.07;2.90;;;;;;;18.74;100.00;101833.50;2072736;28;20204;-68
2022/07/20 02:53:05;;;;;;;6.37;2.93;;;;;;;17.82;100.00;101701.44;2077733;28;20205;-68
2022/07/20 02:54:06;;;;;;;6.87;3.20;;;;;;;18.73;100.00;101832.69;2079814;28;20222;-68
2022/07/20 02:55:07;;;;;;;6.10;3.03;;;;;;;18.64;100.00;101815.81;2079665;28;20231;-67
2022/07/20 02:56:08;;;;;;;7.40;3.20;;;;;;;18.78;100.00;101843.34;2080278;28;20202;-67
2022/07/20 02:57:08;;;;;;;14.10;4.07;;;;;;;18.77;100.00;101838.22;2079646;28;20428;-67
2022/07/20 02:58:10;;;;;;;14.03;4.27;;;;;;;18.18;100.00;101758.56;2080219;28;20179;-67
2022/07/20 02:59:11;;;;;;;10.17;3.30;;;;;;;18.77;100.00;101841.78;2081075;28;20298;-67
2022/07/20 03:00:12;;;;;;;12.10;3.77;;;;;;;18.75;100.00;101829.44;2080413;28;20453;-68
2022/07/20 03:01:12;;;;;;;12.60;3.20;;;;;;;18.66;100.00;101820.97;2080117;28;20185;-68
2022/07/20 03:02:13;;;;;;;8.47;3.17;;;;;;;18.77;100.00;101849.44;2080218;28;20454;-67
2022/07/20 03:03:13;;;;;;;9.57;3.43;;;;;;;18.79;100.00;101838.53;2080407;28;20193;-67
2022/07/20 03:04:14;;;;;;;9.63;3.23;;;;;;;18.80;100.00;101843.69;2079634;28;20575;-67
2022/07/20 03:05:15;;;;;;;7.93;3.30;;;;;;;18.82;100.00;101854.44;2078583;28;20213;-67
2022/07/20 03:06:16;;;;;;;9.93;2.97;;;;;;;18.65;100.00;101823.00;2079488;28;20165;-68
2022/07/20 03:07:17;;;;;;;5.93;3.20;;;;;;;18.82;100.00;101849.63;2075465;28;20180;-68
2022/07/20 03:08:17;;;;;;;9.30;3.03;;;;;;;18.75;100.00;101835.06;2072891;28;20604;-68
2022/07/20 03:09:18;;;;;;;7.10;3.00;;;;;;;18.80;100.00;101851.31;2079095;28;20924;-68
2022/07/20 03:10:19;;;;;;;7.43;2.70;;;;;;;18.82;100.00;101848.81;2079533;28;20192;-68
2022/07/20 03:11:19;;;;;;;6.60;3.23;;;;;;;18.81;100.00;101850.88;2079624;28;20602;-68
2022/07/20 03:12:19;;;;;;;7.10;3.20;;;;;;;18.83;100.00;101851.19;2080501;28;20226;-67
2022/07/20 03:13:20;;;;;;;6.93;2.63;;;;;;;18.85;100.00;101853.53;2080257;28;20180;-68
2022/07/20 03:14:21;;;;;;;5.97;2.77;;;;;;;18.81;100.00;101831.19;2079837;28;20193;-68
2022/07/20 03:15:21;;;;;;;6.37;2.73;;;;;;;18.88;100.00;101849.81;2079951;28;20210;-67
2022/07/20 03:16:21;;;;;;;7.23;2.90;;;;;;;18.82;100.00;101848.81;2080272;28;20303;-68
2022/07/20 03:17:22;;;;;;;11.03;3.30;;;;;;;18.79;100.00;101855.38;2079949;28;20197;-67
2022/07/20 03:18:23;;;;;;;7.07;3.20;;;;;;;18.66;100.00;101835.78;2080187;28;20205;-68
2022/07/20 03:19:23;;;;;;;8.60;3.40;;;;;;;18.73;100.00;101854.41;2079062;28;20451;-67
2022/07/20 03:20:26;;;;;;;10.63;3.30;;;;;;;18.72;100.00;101853.63;2079515;28;20271;-68
2022/07/20 03:21:27;;;;;;;9.67;3.50;;;;;;;18.62;100.00;101854.03;2074944;28;20253;-68
2022/07/20 03:22:27;;;;;;;10.17;4.03;;;;;;;18.62;100.00;101856.84;2078935;28;20414;-68
2022/07/20 03:23:28;;;;;;;11.17;3.80;;;;;;;18.56;100.00;101853.81;2072333;28;20177;-68
2022/07/20 03:24:28;;;;;;;16.83;3.70;;;;;;;18.59;100.00;101844.50;2072506;28;20778;-68
2022/07/20 03:25:29;;;;;;;15.97;4.30;;;;;;;18.08;100.00;101763.81;2078514;28;20197;-68
2022/07/20 03:26:29;;;;;;;14.97;3.70;;;;;;;18.63;100.00;101859.16;2080126;28;20271;-68
2022/07/20 03:27:30;;;;;;;11.23;4.30;;;;;;;18.64;100.00;101862.75;2079503;28;20655;-68
2022/07/20 03:28:30;;;;;;;10.27;3.30;;;;;;;18.64;100.00;101859.97;2080323;28;20643;-68
2022/07/20 03:29:31;;;;;;;10.03;3.40;;;;;;;18.57;100.00;101852.56;2079465;28;20198;-68
2022/07/20 03:30:32;;;;;;;12.93;4.40;;;;;;;18.50;100.00;101858.47;2079588;28;20563;-68
2022/07/20 03:31:32;;;;;;;16.23;4.87;;;;;;;18.46;100.00;101865.44;2080302;28;20175;-68
2022/07/20 03:32:33;;;;;;;18.77;4.50;;;;;;;18.45;100.00;101867.47;2081030;28;20555;-68
2022/07/20 03:33:34;;;;;;;14.27;4.97;;;;;;;18.08;100.00;101800.28;2079726;28;20196;-68
2022/07/20 03:34:34;;;;;;;20.73;5.30;;;;;;;18.20;100.00;101822.66;2073162;28;20444;-68
2022/07/20 03:35:35;;;;;;;18.27;5.00;;;;;;;18.52;100.00;101872.81;2072139;28;20679;-68
2022/07/20 03:36:35;;;;;;;16.00;4.23;;;;;;;18.48;100.00;101868.59;2079545;28;20664;-68
2022/07/20 03:37:36;;;;;;;16.07;4.30;;;;;;;18.47;100.00;101872.63;2079484;28;20633;-68
2022/07/20 03:38:36;;;;;;;17.83;4.03;;;;;;;18.50;100.00;101868.91;2080233;28;20172;-68
2022/07/20 03:39:36;;;;;;;10.60;3.50;;;;;;;18.05;100.00;101801.97;2080220;28;20212;-68
2022/07/20 03:40:37;;;;;;;10.87;3.93;;;;;;;18.51;100.00;101879.69;2080771;28;20173;-68
2022/07/20 03:41:37;;;;;;;7.87;3.27;;;;;;;18.45;100.00;101878.69;2072235;28;20619;-68
2022/07/20 03:42:39;;;;;;;9.27;3.77;;;;;;;18.47;100.00;101876.22;2072326;28;20228;-68
2022/07/20 03:43:39;;;;;;;7.27;3.47;;;;;;;18.50;100.00;101878.13;2071687;28;20652;-68
2022/07/20 03:44:39;;;;;;;11.50;3.43;;;;;;;18.54;100.00;101875.16;2076501;28;20838;-68
2022/07/20 03:45:40;;;;;;;10.67;3.73;;;;;;;18.56;100.00;101876.28;2079615;28;20286;-68
2022/07/20 03:46:40;;;;;;;10.60;3.30;;;;;;;18.60;100.00;101876.94;2080196;28;20192;-68
2022/07/20 03:47:41;;;;;;;13.27;3.90;;;;;;;18.60;100.00;101874.13;2079590;28;20660;-68
2022/07/20 03:48:41;;;;;;;6.07;3.10;;;;;;;18.69;100.00;101881.84;2079793;28;20222;-68
2022/07/20 03:49:42;;;;;;;7.63;3.07;;;;;;;18.71;100.00;101882.94;2075600;28;20202;-68
2022/07/20 03:50:42;;;;;;;9.83;3.07;;;;;;;18.16;100.00;101793.94;2081118;28;20339;-68
2022/07/20 03:51:43;;;;;;;9.27;3.63;;;;;;;18.68;100.00;101869.03;2081329;28;20685;-68
2022/07/20 03:52:43;;;;;;;11.70;3.17;;;;;;;18.83;100.00;101884.13;2081033;28;20198;-68
2022/07/20 03:53:44;;;;;;;7.80;3.10;;;;;;;18.84;100.00;101871.63;2081081;28;20259;-68
2022/07/20 03:54:44;;;;;;;10.33;2.73;;;;;;;18.88;100.00;101883.53;2081401;28;20326;-68
2022/07/20 03:55:45;;;;;;;8.53;3.30;;;;;;;18.85;100.00;101864.75;2080884;28;20630;-68
2022/07/20 03:56:45;;;;;;;8.73;2.83;;;;;;;18.66;100.00;101843.44;2081454;28;20250;-68
2022/07/20 03:57:46;;;;;;;11.10;3.23;;;;;;;18.98;100.00;101871.84;2082050;28;20181;-68
2022/07/20 03:58:47;;;;;;;11.47;2.97;;;;;;;19.01;100.00;101876.56;2081871;28;20195;-68
2022/07/20 03:59:47;;;;;;;7.73;3.10;;;;;;;19.00;100.00;101868.59;2081765;28;20700;-68
2022/07/20 04:00:47;;;;;;;8.53;2.90;;;;;;;18.78;100.00;101829.31;2075562;28;20196;-68
2022/07/20 04:01:48;;;;;;;7.93;3.50;;;;;;;18.23;100.00;101740.38;2077478;28;20196;-68
2022/07/20 04:02:48;;;;;;;8.33;3.10;;;;;;;19.04;100.00;101855.97;2081773;28;20586;-68
2022/07/20 04:03:49;;;;;;;10.07;3.53;;;;;;;19.17;100.00;101876.34;2081252;28;20196;-68
2022/07/20 04:04:49;;;;;;;8.47;3.27;;;;;;;19.22;100.00;101875.75;2080964;28;20176;-68
2022/07/20 04:05:50;;;;;;;10.53;3.60;;;;;;;19.21;100.00;101871.38;2082038;28;20703;-68
2022/07/20 04:06:50;;;;;;;20.60;4.73;;;;;;;19.22;100.00;101875.75;2073753;28;20199;-68
2022/07/20 04:07:51;;;;;;;17.57;4.53;;;;;;;19.21;100.00;101871.38;2080921;28;20197;-68
2022/07/20 04:08:51;;;;;;;14.93;4.50;;;;;;;19.27;100.00;101877.19;2081671;28;20192;-68
2022/07/20 04:09:52;;;;;;;12.63;3.67;;;;;;;19.24;100.00;101878.13;2081930;28;20192;-68
2022/07/20 04:10:52;;;;;;;17.63;4.70;;;;;;;19.28;100.00;101873.91;2081607;28;20552;-68
2022/07/20 04:11:53;;;;;;;11.83;3.77;;;;;;;19.35;100.00;101873.63;2081560;28;20175;-68
2022/07/20 04:12:53;;;;;;;9.27;3.53;;;;;;;19.35;100.00;101868.00;2081545;28;20196;-68
2022/07/20 04:13:54;;;;;;;9.73;3.57;;;;;;;18.69;100.00;101769.50;2081650;28;20229;-68
2022/07/20 04:14:54;;;;;;;9.97;3.23;;;;;;;19.35;100.00;101865.19;2080849;28;20547;-68
2022/07/20 04:15:55;;;;;;;7.20;3.20;;;;;;;19.43;100.00;101865.69;2081316;28;20249;-68
2022/07/20 04:16:55;;;;;;;9.83;3.17;;;;;;;19.44;100.00;101878.50;2075373;28;20196;-68
2022/07/20 04:17:56;;;;;;;11.67;3.20;;;;;;;19.47;100.00;101880.38;2078063;28;20654;-68
2022/07/20 04:18:56;;;;;;;7.93;3.17;;;;;;;19.48;100.00;101876.31;2081588;28;20205;-68
2022/07/20 04:19:57;;;;;;;13.97;4.30;;;;;;;19.45;100.00;101866.78;2081676;28;20169;-68
2022/07/20 04:20:57;;;;;;;11.27;3.70;;;;;;;19.48;100.00;101871.50;2078793;28;20368;-68
2022/07/20 04:22:00;;;;;;;8.97;3.43;;;;;;;18.96;100.00;101784.47;2081027;28;20637;-69
2022/07/20 04:23:01;;;;;;;10.23;3.10;;;;;;;19.59;100.00;101873.88;2081560;28;20197;-69
2022/07/20 04:24:01;;;;;;;6.17;2.63;;;;;;;19.63;100.00;101868.88;2079739;28;20518;-69
2022/07/20 04:25:02;;;;;;;9.00;3.20;;;;;;;19.65;100.00;101867.16;2075423;28;20584;-69
2022/07/20 04:26:03;;;;;;;6.23;3.03;;;;;;;19.70;100.00;101872.16;2079932;28;20185;-69
2022/07/20 04:27:04;;;;;;;8.77;2.90;;;;;;;19.74;100.00;101880.44;2072690;28;20260;-69
2022/07/20 04:28:04;;;;;;;8.97;2.67;;;;;;;19.76;100.00;101875.94;2079545;28;20564;-69
2022/07/20 04:29:05;;;;;;;8.27;2.80;;;;;;;19.80;100.00;101875.81;2081528;28;20695;-69
2022/07/20 04:30:06;;;;;;;8.77;3.07;;;;;;;19.82;100.00;101879.72;2080163;28;20212;-69
2022/07/20 04:31:06;;;;;;;7.27;2.90;;;;;;;19.86;100.00;101883.13;2080185;28;20190;-69
2022/07/20 04:32:07;;;;;;;8.60;3.00;;;;;;;19.89;100.00;101882.22;2079455;28;20938;-69
2022/07/20 04:33:08;;;;;;;11.10;3.30;;;;;;;19.87;100.00;101876.28;2079458;28;20209;-69
2022/07/20 04:34:08;;;;;;;8.13;3.27;;;;;;;19.98;100.00;101881.44;2079832;28;20254;-69
2022/07/20 04:35:09;;;;;;;7.60;2.80;;;;;;;18.88;100.00;101718.56;2080195;28;20831;-69
2022/07/20 04:36:10;;;;;;;7.37;2.57;;;;;;;19.06;100.00;101737.50;2078473;28;20288;-68
2022/07/20 04:37:12;;;;;;;8.30;2.60;;;;;;;20.09;100.00;101890.25;2075511;28;20738;-68
2022/07/20 04:38:17;;;;;;;9.57;2.97;;;;;;;20.12;100.00;101903.38;2079940;28;20189;-68
2022/07/20 04:39:18;;;;;;;8.17;2.70;;;;;;;20.14;100.00;101890.41;2078927;28;20463;-68
2022/07/20 04:40:18;;;;;;;7.00;3.07;;;;;;;20.16;100.00;101899.16;2079292;28;20431;-68
2022/07/20 04:41:19;;;;;;;7.93;3.03;;;;;;;19.54;100.00;101790.91;2081255;28;20241;-68
2022/07/20 04:42:19;;;;;;;9.10;2.60;;;;;;;20.22;100.00;101890.88;2078259;28;20188;-69